createdAt,value
2019-02-28T00:00:06.617Z,10.38
2019-02-28T00:01:05.090Z,10.36
2019-02-28T00:02:05.118Z,10.33
2019-02-28T00:03:05.143Z,10.35
2019-02-28T00:04:05.167Z,10.28
2019-02-28T00:05:06.087Z,10.31
2019-02-28T00:06:05.213Z,10.39
2019-02-28T00:07:05.251Z,10.36
2019-02-28T00:08:05.269Z,10.38
2019-02-28T00:09:05.304Z,10.41
2019-02-28T00:10:05.338Z,10.39
2019-02-28T00:11:06.051Z,10.35
2019-02-28T00:12:05.384Z,10.31
2019-02-28T00:13:05.399Z,10.23
2019-02-28T00:14:05.419Z,10.38
2019-02-28T00:15:05.449Z,10.41
2019-02-28T00:16:05.471Z,10.31
2019-02-28T00:17:06.213Z,10.35
2019-02-28T00:18:05.526Z,10.36
2019-02-28T00:19:05.553Z,10.26
2019-02-28T00:20:05.574Z,10.31
2019-02-28T00:21:06.943Z,10.31
2019-02-28T00:22:05.626Z,10.18
2019-02-28T00:23:05.651Z,10.21
2019-02-28T00:24:05.679Z,10.25
2019-02-28T00:25:05.702Z,10.15
2019-02-28T00:26:05.730Z,10.14
2019-02-28T00:27:05.758Z,10.10
2019-02-28T00:28:05.782Z,10.14
2019-02-28T00:29:05.833Z,10.08
2019-02-28T00:30:06.204Z,10.08
2019-02-28T00:31:05.860Z,9.98
2019-02-28T00:32:05.918Z,10.10
2019-02-28T00:33:05.918Z,10.05
2019-02-28T00:34:05.937Z,10.08
2019-02-28T00:35:05.964Z,10.05
2019-02-28T00:36:05.989Z,10.08
2019-02-28T00:37:06.027Z,10.11
2019-02-28T00:38:06.050Z,10.03
2019-02-28T00:39:06.066Z,9.96
2019-02-28T00:40:06.921Z,10.10
2019-02-28T00:41:08.789Z,9.95
2019-02-28T00:42:06.142Z,10.02
2019-02-28T00:43:06.168Z,9.98
2019-02-28T00:44:06.204Z,9.89
2019-02-28T00:45:06.218Z,9.90
2019-02-28T00:46:07.220Z,9.89
2019-02-28T00:47:06.267Z,9.89
2019-02-28T00:48:06.303Z,9.89
2019-02-28T00:49:06.335Z,9.89
2019-02-28T00:50:06.354Z,9.82
2019-02-28T00:51:06.373Z,9.80
2019-02-28T00:52:06.399Z,9.74
2019-02-28T00:53:07.413Z,9.81
2019-02-28T00:54:08.526Z,9.72
2019-02-28T00:55:06.475Z,9.77
2019-02-28T00:56:06.499Z,9.72
2019-02-28T00:57:06.524Z,9.82
2019-02-28T00:58:06.552Z,9.88
2019-02-28T00:59:06.577Z,9.71
2019-02-28T01:00:06.616Z,9.75
2019-02-28T01:01:08.374Z,9.75
2019-02-28T01:02:06.654Z,9.80
2019-02-28T01:03:06.679Z,9.71
2019-02-28T01:04:06.705Z,9.74
2019-02-28T01:05:06.728Z,9.75
2019-02-28T01:06:09.758Z,9.70
2019-02-28T01:07:06.827Z,9.66
2019-02-28T01:08:06.811Z,9.72
2019-02-28T01:09:06.832Z,9.71
2019-02-28T01:10:06.858Z,9.72
2019-02-28T01:11:06.889Z,9.71
2019-02-28T01:12:06.923Z,9.75
2019-02-28T01:13:06.972Z,9.63
2019-02-28T01:14:06.960Z,9.57
2019-02-28T01:15:07.155Z,9.59
2019-02-28T01:16:07.011Z,9.64
2019-02-28T01:17:07.033Z,9.72
2019-02-28T01:18:07.064Z,9.64
2019-02-28T01:19:09.078Z,9.63
2019-02-28T01:20:07.118Z,9.67
2019-02-28T01:21:07.159Z,9.52
2019-02-28T01:22:07.209Z,9.60
2019-02-28T01:23:07.213Z,9.56
2019-02-28T01:24:07.214Z,9.53
2019-02-28T01:25:07.239Z,9.53
2019-02-28T01:26:07.263Z,9.55
2019-02-28T01:27:07.288Z,9.52
2019-02-28T01:28:07.345Z,9.47
2019-02-28T01:29:07.344Z,9.50
2019-02-28T01:30:07.596Z,9.50
2019-02-28T01:31:07.394Z,9.53
2019-02-28T01:32:07.415Z,9.55
2019-02-28T01:33:10.093Z,9.47
2019-02-28T01:34:07.479Z,9.44
2019-02-28T01:35:07.620Z,9.47
2019-02-28T01:36:07.520Z,9.42
2019-02-28T01:37:07.545Z,9.44
2019-02-28T01:38:07.571Z,9.42
2019-02-28T01:39:07.593Z,9.44
2019-02-28T01:40:07.641Z,9.30
2019-02-28T01:41:08.286Z,9.34
2019-02-28T01:42:07.667Z,9.32
2019-02-28T01:43:07.732Z,9.30
2019-02-28T01:44:07.722Z,9.26
2019-02-28T01:45:09.776Z,9.27
2019-02-28T01:46:07.773Z,9.23
2019-02-28T01:47:07.796Z,9.24
2019-02-28T01:48:07.847Z,9.19
2019-02-28T01:49:07.845Z,9.19
2019-02-28T01:50:07.872Z,9.11
2019-02-28T01:51:07.898Z,9.19
2019-02-28T01:52:10.183Z,9.12
2019-02-28T01:53:07.951Z,9.12
2019-02-28T01:54:07.973Z,9.09
2019-02-28T01:55:08.000Z,9.08
2019-02-28T01:56:08.028Z,9.05
2019-02-28T01:57:08.983Z,9.00
2019-02-28T01:58:08.081Z,9.03
2019-02-28T01:59:08.098Z,9.08
2019-02-28T02:00:08.125Z,8.95
2019-02-28T02:01:08.162Z,8.95
2019-02-28T02:02:08.184Z,9.00
2019-02-28T02:03:09.552Z,8.98
2019-02-28T02:04:08.237Z,8.97
2019-02-28T02:05:08.253Z,8.98
2019-02-28T02:06:08.279Z,8.97
2019-02-28T02:07:08.308Z,8.98
2019-02-28T02:08:08.327Z,8.92
2019-02-28T02:09:11.044Z,8.97
2019-02-28T02:10:08.379Z,8.87
2019-02-28T02:11:08.408Z,8.85
2019-02-28T02:12:08.434Z,8.76
2019-02-28T02:13:08.465Z,8.77
2019-02-28T02:14:11.026Z,8.79
2019-02-28T02:15:08.508Z,8.74
2019-02-28T02:16:08.531Z,8.76
2019-02-28T02:17:08.564Z,8.72
2019-02-28T02:18:09.457Z,8.77
2019-02-28T02:19:08.607Z,8.80
2019-02-28T02:20:08.667Z,8.79
2019-02-28T02:21:08.654Z,8.79
2019-02-28T02:22:09.498Z,8.74
2019-02-28T02:23:08.706Z,8.79
2019-02-28T02:24:08.733Z,8.76
2019-02-28T02:25:08.755Z,8.80
2019-02-28T02:26:11.232Z,8.74
2019-02-28T02:27:08.813Z,8.76
2019-02-28T02:28:08.836Z,8.71
2019-02-28T02:29:08.859Z,8.74
2019-02-28T02:30:14.013Z,8.76
2019-02-28T02:31:08.910Z,8.72
2019-02-28T02:32:08.934Z,8.64
2019-02-28T02:33:13.658Z,8.71
2019-02-28T02:34:08.982Z,8.71
2019-02-28T02:35:09.019Z,8.65
2019-02-28T02:36:09.041Z,8.76
2019-02-28T02:37:09.067Z,8.68
2019-02-28T02:38:09.099Z,8.68
2019-02-28T02:39:09.122Z,8.65
2019-02-28T02:40:09.136Z,8.52
2019-02-28T02:41:09.188Z,8.67
2019-02-28T02:42:11.382Z,8.69
2019-02-28T02:43:09.208Z,8.67
2019-02-28T02:44:09.237Z,8.57
2019-02-28T02:45:09.262Z,8.53
2019-02-28T02:46:09.298Z,8.57
2019-02-28T02:47:09.311Z,8.49
2019-02-28T02:48:09.341Z,8.49
2019-02-28T02:49:09.360Z,8.49
2019-02-28T02:50:09.413Z,8.50
2019-02-28T02:51:11.296Z,8.47
2019-02-28T02:52:09.434Z,8.42
2019-02-28T02:53:09.470Z,8.49
2019-02-28T02:54:09.485Z,8.43
2019-02-28T02:55:09.519Z,8.35
2019-02-28T02:56:09.547Z,8.36
2019-02-28T02:57:14.000Z,8.32
2019-02-28T02:58:09.592Z,8.32
2019-02-28T02:59:09.618Z,8.29
2019-02-28T03:00:13.419Z,8.32
2019-02-28T03:01:09.684Z,8.29
2019-02-28T03:02:09.686Z,8.28
2019-02-28T03:03:09.736Z,8.32
2019-02-28T03:04:09.740Z,8.28
2019-02-28T03:05:09.761Z,8.26
2019-02-28T03:06:13.986Z,8.25
2019-02-28T03:07:09.818Z,8.25
2019-02-28T03:08:09.854Z,8.21
2019-02-28T03:09:11.147Z,8.24
2019-02-28T03:10:09.887Z,8.16
2019-02-28T03:11:09.908Z,8.16
2019-02-28T03:12:09.935Z,8.31
2019-02-28T03:13:09.958Z,8.19
2019-02-28T03:14:10.028Z,8.17
2019-02-28T03:15:10.048Z,8.17
2019-02-28T03:16:10.049Z,8.13
2019-02-28T03:17:12.032Z,8.22
2019-02-28T03:18:10.082Z,8.14
2019-02-28T03:19:10.142Z,8.16
2019-02-28T03:20:10.142Z,8.13
2019-02-28T03:21:10.165Z,7.99
2019-02-28T03:22:10.184Z,8.03
2019-02-28T03:23:10.209Z,8.07
2019-02-28T03:24:14.680Z,8.03
2019-02-28T03:25:10.298Z,8.03
2019-02-28T03:26:10.286Z,7.99
2019-02-28T03:27:10.309Z,8.06
2019-02-28T03:28:10.330Z,8.03
2019-02-28T03:29:10.355Z,7.95
2019-02-28T03:30:10.413Z,7.99
2019-02-28T03:31:14.431Z,8.01
2019-02-28T03:32:10.433Z,7.98
2019-02-28T03:33:24.161Z,8.03
2019-02-28T03:34:13.844Z,7.98
2019-02-28T03:35:11.928Z,8.03
2019-02-28T03:36:10.531Z,8.01
2019-02-28T03:37:10.558Z,7.98
2019-02-28T03:38:12.444Z,7.95
2019-02-28T03:39:10.612Z,7.95
2019-02-28T03:40:10.632Z,7.98
2019-02-28T03:41:16.313Z,7.98
2019-02-28T03:42:10.678Z,7.95
2019-02-28T03:43:10.722Z,7.78
2019-02-28T03:44:10.728Z,7.92
2019-02-28T03:45:10.753Z,7.88
2019-02-28T03:46:11.600Z,7.89
2019-02-28T03:47:10.802Z,7.83
2019-02-28T03:48:10.830Z,7.91
2019-02-28T03:49:12.479Z,7.83
2019-02-28T03:50:10.885Z,7.85
2019-02-28T03:51:10.919Z,7.80
2019-02-28T03:52:10.947Z,7.86
2019-02-28T03:53:10.959Z,7.82
2019-02-28T03:54:10.978Z,7.78
2019-02-28T03:55:11.033Z,7.78
2019-02-28T03:56:14.279Z,7.75
2019-02-28T03:57:11.082Z,7.75
2019-02-28T03:58:11.092Z,7.75
2019-02-28T03:59:18.451Z,7.75
2019-02-28T04:00:11.127Z,7.63
2019-02-28T04:01:11.150Z,7.67
2019-02-28T04:02:11.187Z,7.70
2019-02-28T04:03:11.207Z,7.70
2019-02-28T04:04:12.325Z,7.68
2019-02-28T04:05:11.251Z,7.70
2019-02-28T04:06:11.284Z,7.67
2019-02-28T04:07:15.691Z,7.61
2019-02-28T04:08:11.326Z,7.64
2019-02-28T04:09:11.350Z,7.63
2019-02-28T04:10:11.382Z,7.68
2019-02-28T04:11:11.398Z,7.63
2019-02-28T04:12:11.436Z,7.56
2019-02-28T04:13:11.505Z,7.61
2019-02-28T04:14:11.479Z,7.54
2019-02-28T04:15:11.510Z,7.68
2019-02-28T04:16:11.526Z,7.54
2019-02-28T04:17:11.545Z,7.59
2019-02-28T04:18:11.572Z,7.55
2019-02-28T04:19:11.634Z,7.51
2019-02-28T04:20:11.626Z,7.55
2019-02-28T04:21:12.188Z,7.64
2019-02-28T04:22:11.672Z,7.61
2019-02-28T04:23:11.703Z,7.54
2019-02-28T04:24:13.782Z,7.58
2019-02-28T04:25:11.768Z,7.52
2019-02-28T04:26:11.770Z,7.59
2019-02-28T04:27:11.791Z,7.41
2019-02-28T04:28:16.846Z,7.47
2019-02-28T04:29:11.851Z,7.48
2019-02-28T04:30:11.876Z,7.59
2019-02-28T04:31:18.329Z,7.49
2019-02-28T04:32:11.918Z,7.48
2019-02-28T04:33:11.942Z,7.44
2019-02-28T04:34:13.608Z,7.51
2019-02-28T04:35:11.995Z,7.54
2019-02-28T04:36:12.024Z,7.48
2019-02-28T04:37:12.040Z,7.52
2019-02-28T04:38:12.065Z,7.54
2019-02-28T04:39:12.089Z,7.48
2019-02-28T04:40:12.115Z,7.34
2019-02-28T04:41:12.137Z,7.48
2019-02-28T04:42:12.160Z,7.45
2019-02-28T04:43:12.186Z,7.49
2019-02-28T04:44:12.212Z,7.48
2019-02-28T04:45:12.239Z,7.45
2019-02-28T04:46:12.278Z,7.44
2019-02-28T04:47:12.310Z,7.44
2019-02-28T04:48:13.990Z,7.40
2019-02-28T04:49:12.334Z,7.45
2019-02-28T04:50:12.371Z,7.34
2019-02-28T04:51:12.382Z,7.44
2019-02-28T04:52:12.888Z,7.55
2019-02-28T04:53:12.434Z,7.34
2019-02-28T04:54:12.454Z,7.39
2019-02-28T04:55:12.492Z,7.48
2019-02-28T04:56:12.534Z,7.44
2019-02-28T04:57:12.528Z,7.45
2019-02-28T04:58:12.568Z,7.45
2019-02-28T04:59:12.578Z,7.40
2019-02-28T05:00:12.610Z,7.41
2019-02-28T05:01:13.420Z,7.41
2019-02-28T05:02:12.653Z,7.47
2019-02-28T05:03:12.689Z,7.34
2019-02-28T05:04:12.727Z,7.27
2019-02-28T05:05:13.753Z,7.29
2019-02-28T05:06:12.757Z,7.29
2019-02-28T05:07:12.774Z,7.31
2019-02-28T05:08:12.808Z,7.34
2019-02-28T05:09:14.368Z,7.27
2019-02-28T05:10:12.877Z,7.27
2019-02-28T05:11:12.872Z,7.16
2019-02-28T05:12:12.899Z,7.16
2019-02-28T05:13:14.313Z,7.19
2019-02-28T05:14:12.951Z,7.23
2019-02-28T05:15:12.996Z,7.21
2019-02-28T05:16:13.179Z,7.21
2019-02-28T05:17:13.031Z,7.15
2019-02-28T05:18:13.041Z,7.11
2019-02-28T05:19:13.068Z,7.11
2019-02-28T05:20:13.111Z,7.11
2019-02-28T05:21:13.116Z,7.08
2019-02-28T05:22:13.143Z,7.09
2019-02-28T05:23:13.176Z,7.08
2019-02-28T05:24:13.196Z,7.03
2019-02-28T05:25:17.778Z,7.09
2019-02-28T05:26:13.238Z,7.08
2019-02-28T05:27:13.268Z,7.09
2019-02-28T05:28:13.287Z,7.03
2019-02-28T05:29:13.315Z,7.03
2019-02-28T05:30:17.908Z,7.05
2019-02-28T05:31:13.360Z,7.05
2019-02-28T05:32:13.387Z,7.04
2019-02-28T05:33:13.411Z,6.98
2019-02-28T05:34:15.954Z,7.01
2019-02-28T05:35:13.458Z,7.01
2019-02-28T05:36:13.488Z,6.97
2019-02-28T05:37:13.512Z,6.95
2019-02-28T05:38:13.538Z,7.03
2019-02-28T05:39:13.558Z,7.04
2019-02-28T05:40:13.583Z,7.01
2019-02-28T05:41:15.330Z,6.98
2019-02-28T05:42:13.629Z,7.01
2019-02-28T05:43:13.672Z,7.03
2019-02-28T05:44:13.686Z,6.94
2019-02-28T05:45:14.767Z,6.93
2019-02-28T05:46:13.734Z,6.97
2019-02-28T05:47:13.758Z,7.04
2019-02-28T05:48:13.780Z,6.95
2019-02-28T05:49:13.810Z,7.00
2019-02-28T05:50:16.530Z,6.94
2019-02-28T05:51:13.856Z,7.01
2019-02-28T05:52:13.879Z,6.95
2019-02-28T05:53:13.903Z,6.94
2019-02-28T05:54:16.918Z,6.93
2019-02-28T05:55:13.950Z,7.00
2019-02-28T05:56:13.976Z,6.94
2019-02-28T05:57:14.002Z,6.93
2019-02-28T05:58:17.526Z,6.93
2019-02-28T05:59:14.049Z,6.98
2019-02-28T06:00:14.085Z,6.94
2019-02-28T06:01:14.103Z,6.91
2019-02-28T06:02:14.119Z,6.91
2019-02-28T06:03:14.147Z,6.95
2019-02-28T06:04:14.172Z,6.90
2019-02-28T06:05:14.196Z,6.94
2019-02-28T06:06:14.218Z,6.91
2019-02-28T06:07:14.247Z,6.90
2019-02-28T06:08:14.268Z,6.86
2019-02-28T06:09:14.833Z,6.88
2019-02-28T06:10:14.315Z,6.88
2019-02-28T06:11:15.359Z,6.83
2019-02-28T06:12:14.371Z,6.79
2019-02-28T06:13:15.294Z,6.79
2019-02-28T06:14:14.417Z,6.72
2019-02-28T06:15:14.446Z,6.73
2019-02-28T06:16:14.466Z,6.73
2019-02-28T06:17:17.327Z,6.58
2019-02-28T06:18:14.514Z,6.60
2019-02-28T06:19:14.544Z,6.75
2019-02-28T06:20:16.473Z,6.54
2019-02-28T06:21:14.588Z,6.54
2019-02-28T06:22:14.617Z,6.55
2019-02-28T06:23:14.636Z,6.51
2019-02-28T06:24:14.658Z,6.58
2019-02-28T06:25:22.628Z,6.55
2019-02-28T06:26:14.709Z,6.51
2019-02-28T06:27:14.732Z,6.51
2019-02-28T06:28:14.760Z,6.47
2019-02-28T06:29:14.782Z,6.47
2019-02-28T06:30:14.808Z,6.54
2019-02-28T06:31:15.329Z,6.64
2019-02-28T06:32:14.852Z,6.54
2019-02-28T06:33:14.876Z,6.67
2019-02-28T06:34:14.902Z,6.62
2019-02-28T06:35:17.632Z,6.62
2019-02-28T06:36:14.949Z,6.67
2019-02-28T06:37:14.979Z,6.58
2019-02-28T06:38:16.288Z,6.61
2019-02-28T06:39:15.039Z,6.58
2019-02-28T06:40:15.045Z,6.76
2019-02-28T06:41:15.070Z,6.67
2019-02-28T06:42:15.101Z,6.79
2019-02-28T06:43:15.135Z,6.78
2019-02-28T06:44:15.152Z,6.72
2019-02-28T06:45:15.176Z,6.60
2019-02-28T06:46:15.201Z,6.75
2019-02-28T06:47:15.219Z,6.68
2019-02-28T06:48:15.256Z,6.60
2019-02-28T06:49:15.267Z,6.55
2019-02-28T06:50:15.291Z,6.70
2019-02-28T06:51:16.735Z,6.60
2019-02-28T06:52:15.341Z,6.72
2019-02-28T06:53:15.363Z,6.62
2019-02-28T06:54:15.389Z,6.70
2019-02-28T06:55:15.415Z,6.64
2019-02-28T06:56:16.416Z,6.76
2019-02-28T06:57:15.465Z,6.70
2019-02-28T06:58:15.487Z,6.76
2019-02-28T06:59:15.508Z,6.70
2019-02-28T07:00:15.541Z,6.76
2019-02-28T07:01:15.556Z,6.78
2019-02-28T07:02:15.581Z,6.76
2019-02-28T07:03:15.606Z,6.75
2019-02-28T07:04:15.633Z,6.85
2019-02-28T07:05:15.656Z,6.94
2019-02-28T07:06:15.678Z,6.91
2019-02-28T07:07:15.710Z,6.93
2019-02-28T07:08:15.730Z,6.91
2019-02-28T07:09:15.752Z,6.95
2019-02-28T07:10:15.778Z,6.93
2019-02-28T07:11:15.803Z,6.91
2019-02-28T07:12:15.833Z,6.91
2019-02-28T07:13:15.855Z,7.00
2019-02-28T07:14:15.878Z,7.00
2019-02-28T07:15:15.949Z,6.97
2019-02-28T07:16:15.924Z,6.94
2019-02-28T07:17:15.950Z,6.98
2019-02-28T07:18:18.892Z,6.97
2019-02-28T07:19:16.012Z,7.00
2019-02-28T07:20:16.025Z,7.01
2019-02-28T07:21:16.048Z,7.12
2019-02-28T07:22:19.619Z,7.11
2019-02-28T07:23:16.104Z,7.11
2019-02-28T07:24:16.128Z,7.15
2019-02-28T07:25:16.154Z,7.15
2019-02-28T07:26:18.800Z,7.19
2019-02-28T07:27:16.193Z,7.19
2019-02-28T07:28:16.221Z,7.27
2019-02-28T07:29:16.247Z,7.29
2019-02-28T07:30:18.769Z,7.29
2019-02-28T07:31:16.293Z,7.29
2019-02-28T07:32:16.318Z,7.30
2019-02-28T07:33:16.350Z,7.40
2019-02-28T07:34:19.397Z,7.48
2019-02-28T07:35:16.392Z,7.47
2019-02-28T07:36:16.421Z,7.47
2019-02-28T07:37:19.014Z,7.51
2019-02-28T07:38:16.469Z,7.51
2019-02-28T07:39:16.489Z,7.61
2019-02-28T07:40:17.402Z,7.55
2019-02-28T07:41:16.541Z,7.58
2019-02-28T07:42:16.567Z,7.55
2019-02-28T07:43:16.603Z,7.52
2019-02-28T07:44:21.254Z,7.55
2019-02-28T07:45:16.639Z,7.58
2019-02-28T07:46:16.672Z,7.64
2019-02-28T07:47:17.656Z,7.59
2019-02-28T07:48:16.714Z,7.74
2019-02-28T07:49:16.752Z,7.71
2019-02-28T07:50:16.807Z,7.75
2019-02-28T07:51:18.539Z,7.77
2019-02-28T07:52:16.812Z,7.80
2019-02-28T07:53:16.840Z,7.75
2019-02-28T07:54:16.884Z,7.88
2019-02-28T07:55:16.896Z,7.80
2019-02-28T07:56:16.923Z,7.78
2019-02-28T07:57:17.895Z,7.75
2019-02-28T07:58:16.971Z,7.80
2019-02-28T07:59:16.989Z,7.78
2019-02-28T08:00:18.351Z,7.86
2019-02-28T08:01:18.430Z,7.86
2019-02-28T08:02:17.062Z,7.92
2019-02-28T08:03:17.092Z,8.03
2019-02-28T08:04:18.495Z,7.95
2019-02-28T08:05:17.140Z,7.99
2019-02-28T08:06:17.163Z,7.96
2019-02-28T08:07:17.193Z,7.99
2019-02-28T08:08:17.214Z,8.09
2019-02-28T08:09:17.247Z,8.19
2019-02-28T08:10:17.282Z,8.21
2019-02-28T08:11:19.966Z,8.29
2019-02-28T08:12:17.319Z,8.35
2019-02-28T08:13:17.342Z,8.34
2019-02-28T08:14:17.365Z,8.36
2019-02-28T08:15:21.115Z,8.44
2019-02-28T08:16:17.418Z,8.47
2019-02-28T08:17:17.445Z,8.49
2019-02-28T08:18:18.902Z,8.54
2019-02-28T08:19:17.648Z,8.64
2019-02-28T08:20:17.518Z,8.54
2019-02-28T08:21:17.546Z,8.62
2019-02-28T08:22:23.280Z,8.61
2019-02-28T08:23:17.593Z,8.69
2019-02-28T08:24:17.619Z,8.64
2019-02-28T08:25:17.646Z,8.62
2019-02-28T08:26:18.857Z,8.69
2019-02-28T08:27:17.707Z,8.74
2019-02-28T08:28:17.724Z,8.74
2019-02-28T08:29:17.758Z,8.71
2019-02-28T08:30:19.448Z,8.68
2019-02-28T08:31:17.798Z,8.64
2019-02-28T08:32:17.823Z,8.69
2019-02-28T08:33:17.850Z,8.79
2019-02-28T08:34:20.683Z,8.90
2019-02-28T08:35:17.906Z,8.97
2019-02-28T08:36:17.932Z,9.00
2019-02-28T08:37:19.003Z,8.94
2019-02-28T08:38:17.982Z,8.98
2019-02-28T08:39:18.003Z,9.09
2019-02-28T08:40:18.055Z,9.23
2019-02-28T08:41:18.083Z,9.35
2019-02-28T08:42:18.080Z,9.47
2019-02-28T08:43:26.902Z,9.60
2019-02-28T08:44:22.747Z,9.62
2019-02-28T08:45:18.189Z,9.78
2019-02-28T08:46:18.190Z,9.77
2019-02-28T08:47:21.148Z,9.74
2019-02-28T08:48:18.238Z,9.84
2019-02-28T08:49:18.260Z,10.05
2019-02-28T08:50:20.511Z,10.49
2019-02-28T08:51:18.313Z,10.94
2019-02-28T08:53:19.685Z,11.86
2019-02-28T08:54:18.393Z,12.07
2019-02-28T08:55:28.403Z,12.47
2019-02-28T08:56:18.445Z,12.69
2019-02-28T08:57:18.469Z,12.94
2019-02-28T08:58:18.496Z,12.88
2019-02-28T08:59:20.534Z,12.86
2019-02-28T09:00:18.554Z,12.65
2019-02-28T09:01:18.584Z,12.53
2019-02-28T09:02:19.035Z,12.33
2019-02-28T09:03:18.636Z,12.19
2019-02-28T09:04:18.669Z,12.20
2019-02-28T09:05:18.691Z,12.00
2019-02-28T09:06:18.719Z,12.33
2019-02-28T09:07:18.750Z,12.04
2019-02-28T09:08:18.787Z,11.68
2019-02-28T09:09:18.819Z,11.75
2019-02-28T09:10:18.834Z,11.85
2019-02-28T09:11:21.095Z,11.95
2019-02-28T09:12:18.893Z,11.66
2019-02-28T09:13:18.924Z,11.03
2019-02-28T09:14:18.957Z,10.65
2019-02-28T09:15:18.979Z,10.36
2019-02-28T09:16:19.009Z,10.31
2019-02-28T09:17:19.389Z,10.20
2019-02-28T09:18:19.107Z,10.21
2019-02-28T09:19:19.097Z,10.75
2019-02-28T09:20:19.127Z,11.35
2019-02-28T09:21:19.164Z,11.34
2019-02-28T09:22:19.177Z,11.64
2019-02-28T09:23:19.211Z,11.63
2019-02-28T09:24:19.242Z,11.46
2019-02-28T09:25:22.035Z,11.52
2019-02-28T09:26:19.289Z,11.81
2019-02-28T09:27:19.317Z,11.98
2019-02-28T09:28:20.828Z,11.95
2019-02-28T09:29:21.098Z,11.79
2019-02-28T09:30:19.410Z,11.57
2019-02-28T09:31:19.435Z,11.30
2019-02-28T09:32:19.459Z,11.16
2019-02-28T09:33:23.226Z,11.21
2019-02-28T09:34:19.516Z,11.10
2019-02-28T09:35:19.546Z,11.05
2019-02-28T09:36:20.847Z,11.10
2019-02-28T09:37:19.602Z,11.35
2019-02-28T09:38:19.631Z,11.45
2019-02-28T09:39:20.301Z,11.81
2019-02-28T09:40:19.688Z,12.07
2019-02-28T09:41:19.715Z,11.89
2019-02-28T09:42:19.744Z,11.95
2019-02-28T09:43:19.775Z,11.64
2019-02-28T09:44:19.801Z,11.61
2019-02-28T09:45:19.829Z,11.79
2019-02-28T09:46:19.859Z,11.82
2019-02-28T09:47:19.888Z,11.52
2019-02-28T09:48:19.910Z,11.88
2019-02-28T09:49:19.939Z,11.94
2019-02-28T09:50:22.430Z,11.86
2019-02-28T09:51:19.998Z,11.91
2019-02-28T09:52:20.025Z,11.70
2019-02-28T09:53:20.050Z,11.61
2019-02-28T09:54:21.468Z,11.35
2019-02-28T09:55:20.115Z,11.35
2019-02-28T09:56:20.137Z,11.38
2019-02-28T09:57:20.169Z,11.51
2019-02-28T09:58:20.198Z,12.13
2019-02-28T09:59:20.223Z,12.07
2019-02-28T10:00:20.253Z,12.28
2019-02-28T10:01:21.229Z,12.81
2019-02-28T10:02:20.314Z,13.47
2019-02-28T10:03:20.334Z,14.13
2019-02-28T10:04:20.363Z,14.33
2019-02-28T10:05:20.394Z,14.44
2019-02-28T10:06:20.421Z,14.60
2019-02-28T10:07:23.375Z,14.97
2019-02-28T10:08:21.793Z,15.67
2019-02-28T10:09:20.506Z,15.89
2019-02-28T10:10:21.834Z,15.99
2019-02-28T10:11:21.790Z,16.62
2019-02-28T10:12:20.596Z,16.92
2019-02-28T10:13:20.622Z,17.06
2019-02-28T10:14:20.652Z,16.88
2019-02-28T10:15:20.688Z,16.81
2019-02-28T10:16:20.715Z,16.77
2019-02-28T10:17:22.632Z,16.74
2019-02-28T10:18:20.781Z,16.88
2019-02-28T10:19:20.810Z,16.76
2019-02-28T10:20:26.562Z,16.29
2019-02-28T10:21:20.865Z,15.60
2019-02-28T10:22:20.901Z,14.69
2019-02-28T10:23:21.523Z,14.23
2019-02-28T10:24:20.962Z,14.30
2019-02-28T10:25:20.993Z,14.94
2019-02-28T10:26:21.024Z,15.65
2019-02-28T10:27:23.249Z,15.92
2019-02-28T10:28:21.087Z,16.40
2019-02-28T10:29:21.115Z,16.48
2019-02-28T10:30:30.816Z,16.70
2019-02-28T10:31:22.906Z,16.70
2019-02-28T10:32:21.214Z,17.05
2019-02-28T10:33:21.245Z,17.09
2019-02-28T10:34:23.413Z,17.32
2019-02-28T10:35:21.314Z,17.63
2019-02-28T10:36:21.340Z,17.36
2019-02-28T10:37:22.770Z,17.25
2019-02-28T10:38:21.404Z,17.42
2019-02-28T10:39:21.441Z,17.86
2019-02-28T10:40:21.466Z,18.20
2019-02-28T10:41:24.221Z,17.83
2019-02-28T10:42:21.528Z,17.09
2019-02-28T10:43:21.557Z,16.59
2019-02-28T10:44:21.596Z,16.11
2019-02-28T10:46:04.180Z,16.00
2019-02-28T10:47:04.207Z,16.54
2019-02-28T10:48:04.239Z,16.45
2019-02-28T10:49:04.278Z,16.17
2019-02-28T10:50:05.120Z,15.70
2019-02-28T10:51:12.898Z,15.30
2019-02-28T10:52:04.381Z,14.90
2019-02-28T10:53:05.920Z,14.80
2019-02-28T10:54:04.430Z,15.04
2019-02-28T10:55:05.469Z,15.19
2019-02-28T10:56:04.492Z,15.67
2019-02-28T10:57:06.073Z,16.04
2019-02-28T10:58:04.556Z,16.11
2019-02-28T10:59:04.590Z,15.96
2019-02-28T11:00:04.614Z,16.13
2019-02-28T11:01:08.643Z,15.55
2019-02-28T11:02:04.685Z,15.33
2019-02-28T11:03:04.710Z,15.19
2019-02-28T11:04:07.460Z,15.38
2019-02-28T11:05:04.772Z,15.27
2019-02-28T11:06:04.805Z,15.22
2019-02-28T11:07:04.836Z,14.95
2019-02-28T11:08:04.870Z,14.63
2019-02-28T11:09:04.893Z,14.82
2019-02-28T11:10:04.928Z,14.85
2019-02-28T11:11:07.365Z,14.90
2019-02-28T11:12:04.992Z,14.86
2019-02-28T11:13:05.020Z,14.98
2019-02-28T11:14:05.082Z,15.35
2019-02-28T11:15:05.082Z,15.30
2019-02-28T11:16:05.109Z,15.35
2019-02-28T11:17:10.464Z,15.58
2019-02-28T11:18:08.527Z,15.98
2019-02-28T11:19:05.207Z,16.49
2019-02-28T11:20:05.233Z,16.66
2019-02-28T11:21:05.264Z,16.91
2019-02-28T11:22:05.990Z,17.17
2019-02-28T11:23:05.325Z,17.42
2019-02-28T11:24:05.352Z,17.84
2019-02-28T11:25:05.389Z,17.66
2019-02-28T11:26:06.373Z,17.63
2019-02-28T11:27:05.447Z,17.13
2019-02-28T11:28:05.483Z,16.99
2019-02-28T11:29:05.509Z,16.94
2019-02-28T11:30:07.369Z,16.90
2019-02-28T11:31:05.572Z,17.06
2019-02-28T11:32:05.609Z,17.13
2019-02-28T11:33:05.633Z,17.02
2019-02-28T11:34:05.670Z,16.94
2019-02-28T11:35:05.697Z,17.10
2019-02-28T11:36:07.428Z,16.99
2019-02-28T11:37:08.970Z,16.37
2019-02-28T11:38:05.791Z,16.17
2019-02-28T11:39:05.825Z,16.21
2019-02-28T11:40:08.512Z,16.62
2019-02-28T11:41:05.890Z,16.47
2019-02-28T11:42:05.928Z,16.73
2019-02-28T11:43:05.948Z,17.06
2019-02-28T11:44:05.984Z,17.39
2019-02-28T11:45:06.012Z,17.35
2019-02-28T11:46:06.044Z,17.09
2019-02-28T11:47:08.375Z,17.30
2019-02-28T11:48:06.108Z,17.42
2019-02-28T11:49:06.141Z,17.25
2019-02-28T11:50:07.821Z,17.39
2019-02-28T11:51:06.206Z,17.63
2019-02-28T11:52:06.239Z,17.30
2019-02-28T11:53:06.269Z,17.24
2019-02-28T11:54:06.299Z,17.24
2019-02-28T11:55:06.331Z,17.66
2019-02-28T11:56:06.368Z,17.98
2019-02-28T11:57:06.888Z,17.83
2019-02-28T11:58:06.428Z,17.36
2019-02-28T11:59:06.458Z,16.58
2019-02-28T12:00:06.490Z,16.00
2019-02-28T12:01:10.045Z,15.71
2019-02-28T12:02:06.555Z,15.38
2019-02-28T12:03:06.587Z,15.41
2019-02-28T12:04:06.618Z,15.37
2019-02-28T12:05:06.650Z,15.30
2019-02-28T12:06:06.934Z,15.27
2019-02-28T12:07:06.712Z,15.13
2019-02-28T12:08:10.375Z,15.12
2019-02-28T12:09:06.773Z,15.30
2019-02-28T12:10:06.818Z,15.27
2019-02-28T12:11:06.843Z,15.31
2019-02-28T12:12:07.265Z,15.25
2019-02-28T12:13:06.894Z,15.12
2019-02-28T12:14:06.924Z,15.23
2019-02-28T12:15:06.957Z,15.26
2019-02-28T12:16:06.988Z,15.04
2019-02-28T12:17:07.016Z,15.00
2019-02-28T12:18:07.045Z,14.89
2019-02-28T12:19:07.075Z,14.74
2019-02-28T12:20:07.107Z,14.53
2019-02-28T12:21:07.167Z,14.56
2019-02-28T12:22:09.148Z,14.45
2019-02-28T12:23:07.195Z,14.44
2019-02-28T12:24:07.226Z,14.34
2019-02-28T12:25:07.626Z,14.42
2019-02-28T12:26:07.732Z,14.27
2019-02-28T12:27:07.313Z,14.23
2019-02-28T12:28:07.691Z,14.24
2019-02-28T12:29:09.407Z,14.28
2019-02-28T12:30:07.699Z,14.30
2019-02-28T12:31:07.729Z,14.41
2019-02-28T12:32:08.061Z,14.45
2019-02-28T12:33:07.494Z,14.49
2019-02-28T12:34:07.517Z,14.74
2019-02-28T12:35:07.695Z,14.77
2019-02-28T12:36:07.724Z,14.89
2019-02-28T12:37:07.602Z,15.02
2019-02-28T12:38:07.635Z,15.12
2019-02-28T12:39:07.660Z,15.30
2019-02-28T12:40:10.400Z,15.37
2019-02-28T12:41:07.716Z,15.65
2019-02-28T12:42:07.746Z,15.73
2019-02-28T12:43:08.714Z,15.80
2019-02-28T12:44:07.801Z,15.71
2019-02-28T12:45:07.829Z,15.65
2019-02-28T12:46:07.858Z,15.56
2019-02-28T12:47:07.887Z,15.75
2019-02-28T12:48:07.922Z,15.92
2019-02-28T12:49:07.945Z,15.98
2019-02-28T12:50:07.974Z,16.08
2019-02-28T12:51:08.008Z,16.08
2019-02-28T12:52:08.032Z,16.02
2019-02-28T12:53:10.682Z,16.29
2019-02-28T12:54:08.089Z,16.21
2019-02-28T12:55:08.748Z,16.14
2019-02-28T12:56:08.151Z,15.84
2019-02-28T12:57:08.177Z,15.74
2019-02-28T12:58:08.207Z,15.73
2019-02-28T12:59:09.929Z,15.99
2019-02-28T13:00:08.720Z,16.08
2019-02-28T13:01:08.297Z,16.22
2019-02-28T13:02:08.726Z,16.21
2019-02-28T13:03:09.127Z,16.51
2019-02-28T13:04:08.385Z,16.37
2019-02-28T13:05:14.125Z,16.16
2019-02-28T13:06:08.441Z,16.21
2019-02-28T13:07:08.476Z,16.13
2019-02-28T13:08:08.503Z,15.83
2019-02-28T13:09:08.531Z,15.74
2019-02-28T13:10:08.565Z,15.84